sensor_id;sensor_type;location;lat;lon;timestamp;temperature;humidity
15888;DHT22;56032;51.324;12.376;2023-02-02T00:00:24;3.90;99.90
15888;DHT22;56032;51.324;12.376;2023-02-02T00:02:53;3.90;99.90
15888;DHT22;56032;51.324;12.376;2023-02-02T00:05:22;3.90;99.90
15888;DHT22;56032;51.324;12.376;2023-02-02T00:07:51;4.00;99.90
15888;DHT22;56032;51.324;12.376;2023-02-02T00:10:22;4.10;99.90
15888;DHT22;56032;51.324;12.376;2023-02-02T00:12:50;4.10;99.90
15888;DHT22;56032;51.324;12.376;2023-02-02T00:15:20;4.10;99.90
15888;DHT22;56032;51.324;12.376;2023-02-02T00:17:50;4.10;99.90
15888;DHT22;56032;51.324;12.376;2023-02-02T00:20:19;4.10;99.90
15888;DHT22;56032;51.324;12.376;2023-02-02T00:22:50;4.10;99.90
15888;DHT22;56032;51.324;12.376;2023-02-02T00:25:18;4.10;99.90
15888;DHT22;56032;51.324;12.376;2023-02-02T00:27:49;4.10;99.90
15888;DHT22;56032;51.324;12.376;2023-02-02T00:30:18;4.10;99.90
15888;DHT22;56032;51.324;12.376;2023-02-02T00:32:47;4.20;99.90
15888;DHT22;56032;51.324;12.376;2023-02-02T00:35:19;4.20;99.90
15888;DHT22;56032;51.324;12.376;2023-02-02T00:37:48;4.20;99.90
15888;DHT22;56032;51.324;12.376;2023-02-02T00:40:17;4.20;99.90
15888;DHT22;56032;51.324;12.376;2023-02-02T00:42:45;4.30;99.90
15888;DHT22;56032;51.324;12.376;2023-02-02T00:45:18;4.20;99.90
15888;DHT22;56032;51.324;12.376;2023-02-02T00:47:47;4.20;99.90
15888;DHT22;56032;51.324;12.376;2023-02-02T00:50:16;4.30;99.90
15888;DHT22;56032;51.324;12.376;2023-02-02T00:52:46;4.30;99.90
15888;DHT22;56032;51.324;12.376;2023-02-02T00:55:16;4.30;99.90
15888;DHT22;56032;51.324;12.376;2023-02-02T00:57:44;4.30;99.90
15888;DHT22;56032;51.324;12.376;2023-02-02T01:00:14;4.20;99.90
15888;DHT22;56032;51.324;12.376;2023-02-02T01:02:45;4.20;99.90
15888;DHT22;56032;51.324;12.376;2023-02-02T01:05:14;4.20;99.90
15888;DHT22;56032;51.324;12.376;2023-02-02T01:07:44;4.20;99.90
15888;DHT22;56032;51.324;12.376;2023-02-02T01:10:13;4.20;99.90
15888;DHT22;56032;51.324;12.376;2023-02-02T01:12:42;4.20;99.90
15888;DHT22;56032;51.324;12.376;2023-02-02T01:15:11;4.20;99.90
15888;DHT22;56032;51.324;12.376;2023-02-02T01:17:39;4.20;99.90
15888;DHT22;56032;51.324;12.376;2023-02-02T01:20:10;4.20;99.90
15888;DHT22;56032;51.324;12.376;2023-02-02T01:22:42;4.20;99.90
15888;DHT22;56032;51.324;12.376;2023-02-02T01:25:11;4.20;99.90
15888;DHT22;56032;51.324;12.376;2023-02-02T01:27:40;4.20;99.90
15888;DHT22;56032;51.324;12.376;2023-02-02T01:30:10;4.30;99.90
15888;DHT22;56032;51.324;12.376;2023-02-02T01:32:39;4.20;99.90
15888;DHT22;56032;51.324;12.376;2023-02-02T01:35:09;4.30;99.90
15888;DHT22;56032;51.324;12.376;2023-02-02T01:37:38;4.30;99.90
15888;DHT22;56032;51.324;12.376;2023-02-02T01:40:07;4.40;99.90
15888;DHT22;56032;51.324;12.376;2023-02-02T01:42:36;4.40;99.90
15888;DHT22;56032;51.324;12.376;2023-02-02T01:47:55;4.40;99.90
15888;DHT22;56032;51.324;12.376;2023-02-02T01:50:27;4.40;99.90
15888;DHT22;56032;51.324;12.376;2023-02-02T01:52:57;4.30;99.90
15888;DHT22;56032;51.324;12.376;2023-02-02T01:55:27;4.30;99.90
15888;DHT22;56032;51.324;12.376;2023-02-02T01:57:58;4.30;99.90
15888;DHT22;56032;51.324;12.376;2023-02-02T02:00:28;4.30;99.90
15888;DHT22;56032;51.324;12.376;2023-02-02T02:02:58;4.30;99.90
15888;DHT22;56032;51.324;12.376;2023-02-02T02:05:30;4.20;99.90
15888;DHT22;56032;51.324;12.376;2023-02-02T02:08:01;4.30;99.90
15888;DHT22;56032;51.324;12.376;2023-02-02T02:10:31;4.30;99.90
15888;DHT22;56032;51.324;12.376;2023-02-02T02:13:00;4.30;99.90
15888;DHT22;56032;51.324;12.376;2023-02-02T02:15:29;4.30;99.90
15888;DHT22;56032;51.324;12.376;2023-02-02T02:18:21;4.30;99.90
15888;DHT22;56032;51.324;12.376;2023-02-02T02:24:20;4.30;99.90
15888;DHT22;56032;51.324;12.376;2023-02-02T02:27:16;4.30;99.90
15888;DHT22;56032;51.324;12.376;2023-02-02T02:30:06;4.30;99.90
15888;DHT22;56032;51.324;12.376;2023-02-02T02:32:39;4.30;99.90
15888;DHT22;56032;51.324;12.376;2023-02-02T02:35:11;4.30;99.90
15888;DHT22;56032;51.324;12.376;2023-02-02T02:37:43;4.30;99.90
15888;DHT22;56032;51.324;12.376;2023-02-02T02:40:16;4.30;99.90
15888;DHT22;56032;51.324;12.376;2023-02-02T02:42:47;4.30;99.90
15888;DHT22;56032;51.324;12.376;2023-02-02T02:45:17;4.30;99.90
15888;DHT22;56032;51.324;12.376;2023-02-02T02:47:48;4.30;99.90
15888;DHT22;56032;51.324;12.376;2023-02-02T02:50:18;4.40;99.90
15888;DHT22;56032;51.324;12.376;2023-02-02T02:52:46;4.40;99.90
15888;DHT22;56032;51.324;12.376;2023-02-02T02:55:16;4.40;99.90
15888;DHT22;56032;51.324;12.376;2023-02-02T02:57:52;4.40;99.90
15888;DHT22;56032;51.324;12.376;2023-02-02T03:00:27;4.40;99.90
15888;DHT22;56032;51.324;12.376;2023-02-02T03:03:03;4.50;99.90
15888;DHT22;56032;51.324;12.376;2023-02-02T03:05:35;4.40;99.90
15888;DHT22;56032;51.324;12.376;2023-02-02T03:08:08;4.50;99.90
15888;DHT22;56032;51.324;12.376;2023-02-02T03:10:38;4.50;99.90
15888;DHT22;56032;51.324;12.376;2023-02-02T03:13:08;4.50;99.90
15888;DHT22;56032;51.324;12.376;2023-02-02T03:15:39;4.60;99.90
15888;DHT22;56032;51.324;12.376;2023-02-02T03:18:09;4.60;99.90
15888;DHT22;56032;51.324;12.376;2023-02-02T03:20:39;4.60;99.90
15888;DHT22;56032;51.324;12.376;2023-02-02T03:23:07;4.60;99.90
15888;DHT22;56032;51.324;12.376;2023-02-02T03:25:35;4.60;99.90
15888;DHT22;56032;51.324;12.376;2023-02-02T03:28:04;4.60;99.90
15888;DHT22;56032;51.324;12.376;2023-02-02T03:30:33;4.60;99.90
15888;DHT22;56032;51.324;12.376;2023-02-02T03:33:03;4.60;99.90
15888;DHT22;56032;51.324;12.376;2023-02-02T03:35:34;4.60;99.90
15888;DHT22;56032;51.324;12.376;2023-02-02T03:38:03;4.60;99.90
15888;DHT22;56032;51.324;12.376;2023-02-02T03:40:31;4.60;99.90
15888;DHT22;56032;51.324;12.376;2023-02-02T03:42:59;4.60;99.90
15888;DHT22;56032;51.324;12.376;2023-02-02T03:45:28;4.60;99.90
15888;DHT22;56032;51.324;12.376;2023-02-02T03:47:57;4.60;99.90
15888;DHT22;56032;51.324;12.376;2023-02-02T03:50:26;4.70;99.90
15888;DHT22;56032;51.324;12.376;2023-02-02T03:52:55;4.70;99.90
15888;DHT22;56032;51.324;12.376;2023-02-02T03:55:24;4.60;99.90
15888;DHT22;56032;51.324;12.376;2023-02-02T03:57:53;4.70;99.90
15888;DHT22;56032;51.324;12.376;2023-02-02T04:00:22;4.70;99.90
15888;DHT22;56032;51.324;12.376;2023-02-02T04:02:50;4.70;99.90
15888;DHT22;56032;51.324;12.376;2023-02-02T04:05:21;4.70;99.90
15888;DHT22;56032;51.324;12.376;2023-02-02T04:07:50;4.60;99.90
15888;DHT22;56032;51.324;12.376;2023-02-02T04:10:20;4.70;99.90
15888;DHT22;56032;51.324;12.376;2023-02-02T04:12:49;4.60;99.90
15888;DHT22;56032;51.324;12.376;2023-02-02T04:15:19;4.60;99.90
15888;DHT22;56032;51.324;12.376;2023-02-02T04:17:48;4.50;99.90
15888;DHT22;56032;51.324;12.376;2023-02-02T04:20:17;4.60;99.90
15888;DHT22;56032;51.324;12.376;2023-02-02T04:22:45;4.50;99.90
15888;DHT22;56032;51.324;12.376;2023-02-02T04:25:14;4.50;99.90
15888;DHT22;56032;51.324;12.376;2023-02-02T04:27:45;4.50;99.90
15888;DHT22;56032;51.324;12.376;2023-02-02T04:30:17;4.50;99.90
15888;DHT22;56032;51.324;12.376;2023-02-02T04:32:46;4.50;99.90
15888;DHT22;56032;51.324;12.376;2023-02-02T04:35:15;4.50;99.90
15888;DHT22;56032;51.324;12.376;2023-02-02T04:37:44;4.50;99.90
15888;DHT22;56032;51.324;12.376;2023-02-02T04:40:13;4.50;99.90
15888;DHT22;56032;51.324;12.376;2023-02-02T04:42:42;4.50;99.90
15888;DHT22;56032;51.324;12.376;2023-02-02T04:45:12;4.50;99.90
15888;DHT22;56032;51.324;12.376;2023-02-02T04:47:41;4.60;99.90
15888;DHT22;56032;51.324;12.376;2023-02-02T04:50:10;4.50;99.90
15888;DHT22;56032;51.324;12.376;2023-02-02T04:52:39;4.50;99.90
15888;DHT22;56032;51.324;12.376;2023-02-02T04:55:11;4.50;99.90
15888;DHT22;56032;51.324;12.376;2023-02-02T04:57:41;4.50;99.90
15888;DHT22;56032;51.324;12.376;2023-02-02T05:00:10;4.50;99.90
15888;DHT22;56032;51.324;12.376;2023-02-02T05:02:41;4.60;99.90
15888;DHT22;56032;51.324;12.376;2023-02-02T05:05:11;4.50;99.90
15888;DHT22;56032;51.324;12.376;2023-02-02T05:07:39;4.50;99.90
15888;DHT22;56032;51.324;12.376;2023-02-02T05:10:09;4.50;99.90
15888;DHT22;56032;51.324;12.376;2023-02-02T05:12:38;4.50;99.90
15888;DHT22;56032;51.324;12.376;2023-02-02T05:15:06;4.50;99.90
15888;DHT22;56032;51.324;12.376;2023-02-02T05:17:35;4.40;99.90
15888;DHT22;56032;51.324;12.376;2023-02-02T05:20:05;4.50;99.90
15888;DHT22;56032;51.324;12.376;2023-02-02T05:22:34;4.40;99.90
15888;DHT22;56032;51.324;12.376;2023-02-02T05:25:03;4.40;99.90
15888;DHT22;56032;51.324;12.376;2023-02-02T05:27:32;4.40;99.90
15888;DHT22;56032;51.324;12.376;2023-02-02T05:30:01;4.40;99.90
15888;DHT22;56032;51.324;12.376;2023-02-02T05:32:30;4.40;99.90
15888;DHT22;56032;51.324;12.376;2023-02-02T05:35:00;4.50;99.90
15888;DHT22;56032;51.324;12.376;2023-02-02T05:37:30;4.50;99.90
15888;DHT22;56032;51.324;12.376;2023-02-02T05:39:58;4.50;99.90
15888;DHT22;56032;51.324;12.376;2023-02-02T05:42:27;4.50;99.90
15888;DHT22;56032;51.324;12.376;2023-02-02T05:44:56;4.50;99.90
15888;DHT22;56032;51.324;12.376;2023-02-02T05:47:25;4.50;99.90
15888;DHT22;56032;51.324;12.376;2023-02-02T05:49:53;4.50;99.90
15888;DHT22;56032;51.324;12.376;2023-02-02T05:52:25;4.50;99.90
15888;DHT22;56032;51.324;12.376;2023-02-02T05:54:56;4.50;99.90
15888;DHT22;56032;51.324;12.376;2023-02-02T05:57:24;4.50;99.90
15888;DHT22;56032;51.324;12.376;2023-02-02T05:59:53;4.50;99.90
15888;DHT22;56032;51.324;12.376;2023-02-02T06:02:22;4.30;99.90
15888;DHT22;56032;51.324;12.376;2023-02-02T06:04:51;4.50;99.90
15888;DHT22;56032;51.324;12.376;2023-02-02T06:07:20;4.50;99.90
15888;DHT22;56032;51.324;12.376;2023-02-02T06:09:48;4.50;99.90
15888;DHT22;56032;51.324;12.376;2023-02-02T06:12:18;4.40;99.90
15888;DHT22;56032;51.324;12.376;2023-02-02T06:14:50;4.40;99.90
15888;DHT22;56032;51.324;12.376;2023-02-02T06:17:19;4.30;99.90
15888;DHT22;56032;51.324;12.376;2023-02-02T06:19:48;4.30;99.90
15888;DHT22;56032;51.324;12.376;2023-02-02T06:22:17;4.30;99.90
15888;DHT22;56032;51.324;12.376;2023-02-02T06:24:46;4.20;99.90
15888;DHT22;56032;51.324;12.376;2023-02-02T06:27:19;4.30;99.90
15888;DHT22;56032;51.324;12.376;2023-02-02T06:29:48;4.30;99.90
15888;DHT22;56032;51.324;12.376;2023-02-02T06:32:19;4.30;99.90
15888;DHT22;56032;51.324;12.376;2023-02-02T06:34:47;4.30;99.90
15888;DHT22;56032;51.324;12.376;2023-02-02T06:37:16;4.30;99.90
15888;DHT22;56032;51.324;12.376;2023-02-02T06:39:45;4.20;99.90
15888;DHT22;56032;51.324;12.376;2023-02-02T06:42:13;4.20;99.90
15888;DHT22;56032;51.324;12.376;2023-02-02T06:44:49;4.30;99.90
15888;DHT22;56032;51.324;12.376;2023-02-02T06:47:18;4.30;99.90
15888;DHT22;56032;51.324;12.376;2023-02-02T06:49:47;4.40;99.90
15888;DHT22;56032;51.324;12.376;2023-02-02T06:52:15;4.40;99.90
15888;DHT22;56032;51.324;12.376;2023-02-02T06:54:44;4.30;99.90
15888;DHT22;56032;51.324;12.376;2023-02-02T06:57:13;4.40;99.90
15888;DHT22;56032;51.324;12.376;2023-02-02T06:59:42;4.40;99.90
15888;DHT22;56032;51.324;12.376;2023-02-02T07:02:12;4.40;99.90
15888;DHT22;56032;51.324;12.376;2023-02-02T07:04:41;4.50;99.90
15888;DHT22;56032;51.324;12.376;2023-02-02T07:07:10;4.50;99.90
15888;DHT22;56032;51.324;12.376;2023-02-02T07:09:39;4.50;99.90
15888;DHT22;56032;51.324;12.376;2023-02-02T07:12:08;4.50;99.90
15888;DHT22;56032;51.324;12.376;2023-02-02T07:14:38;4.50;99.90
15888;DHT22;56032;51.324;12.376;2023-02-02T07:17:07;4.50;99.90
15888;DHT22;56032;51.324;12.376;2023-02-02T07:19:37;4.50;99.90
15888;DHT22;56032;51.324;12.376;2023-02-02T07:22:05;4.60;99.90
15888;DHT22;56032;51.324;12.376;2023-02-02T07:24:35;4.60;99.90
15888;DHT22;56032;51.324;12.376;2023-02-02T07:27:04;4.60;99.90
15888;DHT22;56032;51.324;12.376;2023-02-02T07:29:36;4.60;99.90
15888;DHT22;56032;51.324;12.376;2023-02-02T07:32:05;4.60;99.90
15888;DHT22;56032;51.324;12.376;2023-02-02T07:34:37;4.60;99.90
15888;DHT22;56032;51.324;12.376;2023-02-02T07:37:06;4.60;99.90
15888;DHT22;56032;51.324;12.376;2023-02-02T07:39:35;4.60;99.90
15888;DHT22;56032;51.324;12.376;2023-02-02T07:42:04;4.60;99.90
15888;DHT22;56032;51.324;12.376;2023-02-02T07:44:34;4.70;99.90
15888;DHT22;56032;51.324;12.376;2023-02-02T07:47:03;4.70;99.90
15888;DHT22;56032;51.324;12.376;2023-02-02T07:49:32;4.70;99.90
15888;DHT22;56032;51.324;12.376;2023-02-02T07:52:03;4.70;99.90
15888;DHT22;56032;51.324;12.376;2023-02-02T07:54:32;4.80;99.90
15888;DHT22;56032;51.324;12.376;2023-02-02T07:57:01;4.80;99.90
15888;DHT22;56032;51.324;12.376;2023-02-02T07:59:30;4.80;99.90
15888;DHT22;56032;51.324;12.376;2023-02-02T08:01:59;4.90;99.90
15888;DHT22;56032;51.324;12.376;2023-02-02T08:04:33;4.90;99.90
15888;DHT22;56032;51.324;12.376;2023-02-02T08:07:03;4.90;99.90
15888;DHT22;56032;51.324;12.376;2023-02-02T08:09:32;5.00;99.90
15888;DHT22;56032;51.324;12.376;2023-02-02T08:12:01;5.00;99.90
15888;DHT22;56032;51.324;12.376;2023-02-02T08:14:30;5.00;99.90
15888;DHT22;56032;51.324;12.376;2023-02-02T08:16:58;5.00;99.90
15888;DHT22;56032;51.324;12.376;2023-02-02T08:19:28;5.00;99.90
15888;DHT22;56032;51.324;12.376;2023-02-02T08:21:57;5.10;99.90
15888;DHT22;56032;51.324;12.376;2023-02-02T08:24:27;5.10;99.90
15888;DHT22;56032;51.324;12.376;2023-02-02T08:26:55;5.10;99.90
15888;DHT22;56032;51.324;12.376;2023-02-02T08:29:24;5.10;99.90
15888;DHT22;56032;51.324;12.376;2023-02-02T08:31:52;5.10;99.90
15888;DHT22;56032;51.324;12.376;2023-02-02T08:34:21;5.20;99.90
15888;DHT22;56032;51.324;12.376;2023-02-02T08:36:49;5.30;99.90
15888;DHT22;56032;51.324;12.376;2023-02-02T08:39:18;5.30;99.90
15888;DHT22;56032;51.324;12.376;2023-02-02T08:41:48;5.40;99.90
15888;DHT22;56032;51.324;12.376;2023-02-02T08:44:17;5.40;99.90
15888;DHT22;56032;51.324;12.376;2023-02-02T08:46:49;5.40;99.90
15888;DHT22;56032;51.324;12.376;2023-02-02T08:49:18;5.40;99.90
15888;DHT22;56032;51.324;12.376;2023-02-02T08:51:47;5.50;99.90
15888;DHT22;56032;51.324;12.376;2023-02-02T08:54:15;5.50;99.90
15888;DHT22;56032;51.324;12.376;2023-02-02T08:56:44;5.50;99.90
15888;DHT22;56032;51.324;12.376;2023-02-02T08:59:14;5.50;99.90
15888;DHT22;56032;51.324;12.376;2023-02-02T09:01:43;5.60;99.90
15888;DHT22;56032;51.324;12.376;2023-02-02T09:04:12;5.60;99.90
15888;DHT22;56032;51.324;12.376;2023-02-02T09:06:42;5.60;99.90
15888;DHT22;56032;51.324;12.376;2023-02-02T09:09:12;5.60;99.90
15888;DHT22;56032;51.324;12.376;2023-02-02T09:11:41;5.60;99.90
15888;DHT22;56032;51.324;12.376;2023-02-02T09:14:11;5.60;99.90
15888;DHT22;56032;51.324;12.376;2023-02-02T09:16:41;5.60;99.90
15888;DHT22;56032;51.324;12.376;2023-02-02T09:19:12;5.60;99.90
15888;DHT22;56032;51.324;12.376;2023-02-02T09:21:41;5.60;99.90
15888;DHT22;56032;51.324;12.376;2023-02-02T09:24:10;5.70;99.90
15888;DHT22;56032;51.324;12.376;2023-02-02T09:26:39;5.80;99.90
15888;DHT22;56032;51.324;12.376;2023-02-02T09:29:10;5.80;99.90
15888;DHT22;56032;51.324;12.376;2023-02-02T09:31:38;5.90;99.90
15888;DHT22;56032;51.324;12.376;2023-02-02T09:34:10;6.00;99.90
15888;DHT22;56032;51.324;12.376;2023-02-02T09:36:38;6.00;99.90
15888;DHT22;56032;51.324;12.376;2023-02-02T09:39:08;6.10;99.90
15888;DHT22;56032;51.324;12.376;2023-02-02T09:41:55;6.20;99.90
15888;DHT22;56032;51.324;12.376;2023-02-02T09:44:30;6.20;99.90
15888;DHT22;56032;51.324;12.376;2023-02-02T09:47:05;6.20;99.90
15888;DHT22;56032;51.324;12.376;2023-02-02T09:49:38;6.20;99.90
15888;DHT22;56032;51.324;12.376;2023-02-02T09:52:08;6.20;99.90
15888;DHT22;56032;51.324;12.376;2023-02-02T09:54:40;6.20;99.90
15888;DHT22;56032;51.324;12.376;2023-02-02T09:57:11;6.20;99.90
15888;DHT22;56032;51.324;12.376;2023-02-02T09:59:41;6.10;99.90
15888;DHT22;56032;51.324;12.376;2023-02-02T10:02:12;6.10;99.90
15888;DHT22;56032;51.324;12.376;2023-02-02T10:04:44;6.10;99.90
15888;DHT22;56032;51.324;12.376;2023-02-02T10:07:15;6.10;99.90
15888;DHT22;56032;51.324;12.376;2023-02-02T10:09:45;6.20;99.90
15888;DHT22;56032;51.324;12.376;2023-02-02T10:12:17;6.20;99.90
15888;DHT22;56032;51.324;12.376;2023-02-02T10:14:50;6.20;99.90
15888;DHT22;56032;51.324;12.376;2023-02-02T10:17:24;6.30;99.90
15888;DHT22;56032;51.324;12.376;2023-02-02T10:19:57;6.20;99.90
15888;DHT22;56032;51.324;12.376;2023-02-02T10:22:30;6.30;99.90
15888;DHT22;56032;51.324;12.376;2023-02-02T10:25:00;6.40;99.90
15888;DHT22;56032;51.324;12.376;2023-02-02T10:27:30;6.50;99.90
15888;DHT22;56032;51.324;12.376;2023-02-02T10:30:03;6.50;99.90
15888;DHT22;56032;51.324;12.376;2023-02-02T10:32:41;6.50;99.90
15888;DHT22;56032;51.324;12.376;2023-02-02T10:35:20;6.50;99.90
15888;DHT22;56032;51.324;12.376;2023-02-02T10:37:54;6.50;99.90
15888;DHT22;56032;51.324;12.376;2023-02-02T10:40:30;6.50;99.90
15888;DHT22;56032;51.324;12.376;2023-02-02T10:46:07;6.60;99.90
15888;DHT22;56032;51.324;12.376;2023-02-02T10:48:38;6.60;99.90
15888;DHT22;56032;51.324;12.376;2023-02-02T10:51:13;6.60;99.90
15888;DHT22;56032;51.324;12.376;2023-02-02T10:53:45;6.60;99.90
15888;DHT22;56032;51.324;12.376;2023-02-02T10:56:16;6.60;99.90
15888;DHT22;56032;51.324;12.376;2023-02-02T10:58:49;6.80;99.90
15888;DHT22;56032;51.324;12.376;2023-02-02T11:01:19;6.50;99.90
15888;DHT22;56032;51.324;12.376;2023-02-02T11:03:48;6.50;99.90
15888;DHT22;56032;51.324;12.376;2023-02-02T11:06:39;6.50;99.90
15888;DHT22;56032;51.324;12.376;2023-02-02T11:09:17;6.50;99.90
15888;DHT22;56032;51.324;12.376;2023-02-02T11:11:49;6.50;99.90
15888;DHT22;56032;51.324;12.376;2023-02-02T11:14:19;6.50;99.90
15888;DHT22;56032;51.324;12.376;2023-02-02T11:16:58;6.50;99.90
15888;DHT22;56032;51.324;12.376;2023-02-02T11:19:27;6.50;99.90
15888;DHT22;56032;51.324;12.376;2023-02-02T11:22:00;6.60;99.90
15888;DHT22;56032;51.324;12.376;2023-02-02T11:24:29;6.60;99.90
15888;DHT22;56032;51.324;12.376;2023-02-02T11:27:02;6.60;99.90
15888;DHT22;56032;51.324;12.376;2023-02-02T11:29:32;6.60;99.90
15888;DHT22;56032;51.324;12.376;2023-02-02T11:32:17;6.70;99.90
15888;DHT22;56032;51.324;12.376;2023-02-02T11:34:46;6.80;99.90
15888;DHT22;56032;51.324;12.376;2023-02-02T11:37:19;6.80;99.90
15888;DHT22;56032;51.324;12.376;2023-02-02T11:39:48;6.90;99.90
15888;DHT22;56032;51.324;12.376;2023-02-02T11:42:20;6.80;99.90
15888;DHT22;56032;51.324;12.376;2023-02-02T11:44:50;6.90;99.90
15888;DHT22;56032;51.324;12.376;2023-02-02T11:47:20;6.90;99.90
15888;DHT22;56032;51.324;12.376;2023-02-02T11:49:49;6.90;99.90
15888;DHT22;56032;51.324;12.376;2023-02-02T11:52:21;6.80;99.90
15888;DHT22;56032;51.324;12.376;2023-02-02T11:54:51;6.90;99.90
15888;DHT22;56032;51.324;12.376;2023-02-02T11:57:20;6.90;99.90
15888;DHT22;56032;51.324;12.376;2023-02-02T11:59:49;7.00;99.90
15888;DHT22;56032;51.324;12.376;2023-02-02T12:02:22;7.00;99.90
15888;DHT22;56032;51.324;12.376;2023-02-02T12:04:51;7.10;99.90
15888;DHT22;56032;51.324;12.376;2023-02-02T12:07:25;7.10;99.90
15888;DHT22;56032;51.324;12.376;2023-02-02T12:09:56;7.20;99.90
15888;DHT22;56032;51.324;12.376;2023-02-02T12:12:32;7.10;99.90
15888;DHT22;56032;51.324;12.376;2023-02-02T12:15:05;7.00;99.90
15888;DHT22;56032;51.324;12.376;2023-02-02T12:17:36;7.00;99.90
15888;DHT22;56032;51.324;12.376;2023-02-02T12:20:10;6.90;99.90
15888;DHT22;56032;51.324;12.376;2023-02-02T12:22:48;6.90;99.90
15888;DHT22;56032;51.324;12.376;2023-02-02T12:25:30;6.90;99.90
15888;DHT22;56032;51.324;12.376;2023-02-02T12:28:00;6.80;99.90
15888;DHT22;56032;51.324;12.376;2023-02-02T12:30:31;6.80;99.90
15888;DHT22;56032;51.324;12.376;2023-02-02T12:33:07;6.80;99.90
15888;DHT22;56032;51.324;12.376;2023-02-02T12:35:45;6.90;99.90
15888;DHT22;56032;51.324;12.376;2023-02-02T12:38:18;7.00;99.90
15888;DHT22;56032;51.324;12.376;2023-02-02T12:43:35;7.00;99.90
15888;DHT22;56032;51.324;12.376;2023-02-02T12:46:09;6.90;99.90
15888;DHT22;56032;51.324;12.376;2023-02-02T12:48:46;7.00;99.90
15888;DHT22;56032;51.324;12.376;2023-02-02T12:51:23;7.10;99.90
15888;DHT22;56032;51.324;12.376;2023-02-02T12:54:04;7.40;99.90
15888;DHT22;56032;51.324;12.376;2023-02-02T12:56:57;7.50;99.90
15888;DHT22;56032;51.324;12.376;2023-02-02T12:59:39;7.60;99.90
15888;DHT22;56032;51.324;12.376;2023-02-02T13:02:12;7.60;99.90
15888;DHT22;56032;51.324;12.376;2023-02-02T13:04:48;7.50;99.90
15888;DHT22;56032;51.324;12.376;2023-02-02T13:07:31;7.40;99.90
15888;DHT22;56032;51.324;12.376;2023-02-02T13:10:05;7.50;99.90
15888;DHT22;56032;51.324;12.376;2023-02-02T13:12:38;7.60;99.90
15888;DHT22;56032;51.324;12.376;2023-02-02T13:15:09;7.60;99.90
15888;DHT22;56032;51.324;12.376;2023-02-02T13:17:39;7.60;99.90
15888;DHT22;56032;51.324;12.376;2023-02-02T13:20:15;7.40;99.90
15888;DHT22;56032;51.324;12.376;2023-02-02T13:22:46;7.20;99.90
15888;DHT22;56032;51.324;12.376;2023-02-02T13:25:17;7.10;99.90
15888;DHT22;56032;51.324;12.376;2023-02-02T13:27:48;7.00;99.90
15888;DHT22;56032;51.324;12.376;2023-02-02T13:30:21;6.90;99.90
15888;DHT22;56032;51.324;12.376;2023-02-02T13:32:52;6.90;99.90
15888;DHT22;56032;51.324;12.376;2023-02-02T13:35:25;7.00;99.90
15888;DHT22;56032;51.324;12.376;2023-02-02T13:37:59;6.90;99.90
15888;DHT22;56032;51.324;12.376;2023-02-02T13:40:33;6.90;99.90
15888;DHT22;56032;51.324;12.376;2023-02-02T13:43:05;7.00;99.90
15888;DHT22;56032;51.324;12.376;2023-02-02T13:45:39;6.90;99.90
15888;DHT22;56032;51.324;12.376;2023-02-02T13:48:14;6.90;99.90
15888;DHT22;56032;51.324;12.376;2023-02-02T13:50:46;6.80;99.90
15888;DHT22;56032;51.324;12.376;2023-02-02T13:53:22;6.70;99.90
15888;DHT22;56032;51.324;12.376;2023-02-02T13:56:01;6.60;99.90
15888;DHT22;56032;51.324;12.376;2023-02-02T13:58:35;6.50;99.90
15888;DHT22;56032;51.324;12.376;2023-02-02T14:01:07;6.40;99.90
15888;DHT22;56032;51.324;12.376;2023-02-02T14:03:37;6.30;99.90
15888;DHT22;56032;51.324;12.376;2023-02-02T14:06:08;6.30;99.90
15888;DHT22;56032;51.324;12.376;2023-02-02T14:08:42;6.20;99.90
15888;DHT22;56032;51.324;12.376;2023-02-02T14:11:17;6.20;99.90
15888;DHT22;56032;51.324;12.376;2023-02-02T14:13:47;6.20;99.90
15888;DHT22;56032;51.324;12.376;2023-02-02T14:16:42;6.20;99.90
15888;DHT22;56032;51.324;12.376;2023-02-02T14:19:14;6.10;99.90
15888;DHT22;56032;51.324;12.376;2023-02-02T14:22:03;6.20;99.90
15888;DHT22;56032;51.324;12.376;2023-02-02T14:24:39;6.20;99.90
15888;DHT22;56032;51.324;12.376;2023-02-02T14:29:59;6.30;99.90
15888;DHT22;56032;51.324;12.376;2023-02-02T14:32:28;6.30;99.90
15888;DHT22;56032;51.324;12.376;2023-02-02T14:34:58;6.40;99.90
15888;DHT22;56032;51.324;12.376;2023-02-02T14:37:29;6.40;99.90
15888;DHT22;56032;51.324;12.376;2023-02-02T14:40:15;6.40;99.90
15888;DHT22;56032;51.324;12.376;2023-02-02T14:42:49;6.40;99.90
15888;DHT22;56032;51.324;12.376;2023-02-02T14:45:42;6.50;99.90
15888;DHT22;56032;51.324;12.376;2023-02-02T14:48:14;6.50;99.90
15888;DHT22;56032;51.324;12.376;2023-02-02T14:50:45;6.50;99.90
15888;DHT22;56032;51.324;12.376;2023-02-02T14:53:20;6.50;99.90
15888;DHT22;56032;51.324;12.376;2023-02-02T14:55:51;6.50;99.90
15888;DHT22;56032;51.324;12.376;2023-02-02T14:58:22;6.50;99.90
15888;DHT22;56032;51.324;12.376;2023-02-02T15:00:56;6.50;99.90
15888;DHT22;56032;51.324;12.376;2023-02-02T15:03:45;6.40;99.90
15888;DHT22;56032;51.324;12.376;2023-02-02T15:06:23;6.30;99.90
15888;DHT22;56032;51.324;12.376;2023-02-02T15:14:29;6.30;99.90
15888;DHT22;56032;51.324;12.376;2023-02-02T15:17:01;6.30;99.90
15888;DHT22;56032;51.324;12.376;2023-02-02T15:19:32;6.20;99.90
15888;DHT22;56032;51.324;12.376;2023-02-02T15:22:05;6.20;99.90
15888;DHT22;56032;51.324;12.376;2023-02-02T15:24:41;6.20;99.90
15888;DHT22;56032;51.324;12.376;2023-02-02T15:27:13;6.20;99.90
15888;DHT22;56032;51.324;12.376;2023-02-02T15:29:43;6.20;99.90
15888;DHT22;56032;51.324;12.376;2023-02-02T15:32:15;6.20;99.90
15888;DHT22;56032;51.324;12.376;2023-02-02T15:34:45;6.20;99.90
15888;DHT22;56032;51.324;12.376;2023-02-02T15:37:16;6.20;99.90
15888;DHT22;56032;51.324;12.376;2023-02-02T15:39:47;6.10;99.90
15888;DHT22;56032;51.324;12.376;2023-02-02T15:42:20;6.10;99.90
15888;DHT22;56032;51.324;12.376;2023-02-02T15:45:24;6.10;99.90
15888;DHT22;56032;51.324;12.376;2023-02-02T15:47:58;6.10;99.90
15888;DHT22;56032;51.324;12.376;2023-02-02T15:50:27;6.10;99.90
15888;DHT22;56032;51.324;12.376;2023-02-02T15:52:55;6.00;99.90
15888;DHT22;56032;51.324;12.376;2023-02-02T15:55:29;6.10;99.90
15888;DHT22;56032;51.324;12.376;2023-02-02T15:57:58;5.90;99.90
15888;DHT22;56032;51.324;12.376;2023-02-02T16:00:27;5.80;99.90
15888;DHT22;56032;51.324;12.376;2023-02-02T16:02:59;5.70;99.90
15888;DHT22;56032;51.324;12.376;2023-02-02T16:05:42;5.70;99.90
15888;DHT22;56032;51.324;12.376;2023-02-02T16:08:15;5.70;99.90
15888;DHT22;56032;51.324;12.376;2023-02-02T16:10:45;5.60;99.90
15888;DHT22;56032;51.324;12.376;2023-02-02T16:13:20;5.60;99.90
15888;DHT22;56032;51.324;12.376;2023-02-02T16:15:53;5.50;99.90